createdAt,value
2022-08-07T00:01:00.416Z,71.25
2022-08-07T00:04:24.449Z,71.81
2022-08-07T00:07:27.709Z,71.48
2022-08-07T00:10:47.956Z,71.59
2022-08-07T00:13:50.794Z,70.53
2022-08-07T00:16:53.852Z,70.31
2022-08-07T00:20:01.498Z,70.22
2022-08-07T00:23:08.845Z,70.28
2022-08-07T00:26:18.661Z,70.20
2022-08-07T00:29:37.174Z,70.28
2022-08-07T00:32:39.922Z,70.12
2022-08-07T00:35:46.470Z,69.60
2022-08-07T00:38:51.983Z,69.21
2022-08-07T00:42:02.580Z,69.30
2022-08-07T00:45:08.566Z,69.52
2022-08-07T00:48:19.127Z,69.67
2022-08-07T00:51:58.180Z,69.69
2022-08-07T00:54:53.628Z,69.87
2022-08-07T00:57:56.692Z,70.04
2022-08-07T01:00:59.569Z,69.94
2022-08-07T01:04:05.187Z,69.54
2022-08-07T01:07:10.707Z,69.29
2022-08-07T01:10:13.205Z,69.71
2022-08-07T01:13:16.381Z,69.87
2022-08-07T01:16:30.444Z,69.87
2022-08-07T01:19:34.718Z,69.48
2022-08-07T01:22:54.364Z,69.52
2022-08-07T01:26:05.187Z,69.33
2022-08-07T01:29:10.926Z,69.06
2022-08-07T01:32:14.080Z,69.21
2022-08-07T01:35:17.403Z,69.70
2022-08-07T01:38:25.003Z,69.08
2022-08-07T01:41:30.173Z,69.24
2022-08-07T01:44:36.199Z,69.00
2022-08-07T01:48:29.833Z,69.15
2022-08-07T01:51:24.747Z,68.78
2022-08-07T01:54:37.119Z,68.96
2022-08-07T01:58:05.602Z,69.31
2022-08-07T02:01:25.600Z,69.38
2022-08-07T02:04:36.879Z,69.40
2022-08-07T02:07:50.165Z,68.95
2022-08-07T02:10:58.584Z,68.65
2022-08-07T02:14:02.783Z,68.43
2022-08-07T02:17:06.964Z,68.61
2022-08-07T02:20:17.513Z,68.70
2022-08-07T02:23:28.611Z,68.88
2022-08-07T02:26:34.720Z,68.56
2022-08-07T02:29:48.648Z,68.95
2022-08-07T02:33:00.581Z,68.58
2022-08-07T02:36:30.525Z,68.62
2022-08-07T02:39:43.802Z,68.41
2022-08-07T02:43:00.118Z,68.59
2022-08-07T02:46:05.114Z,68.22
2022-08-07T02:49:08.433Z,68.61
2022-08-07T02:52:14.133Z,68.20
2022-08-07T02:55:28.569Z,68.43
2022-08-07T02:58:49.578Z,68.81
2022-08-07T03:01:55.208Z,70.15
2022-08-07T03:04:59.723Z,69.98
2022-08-07T03:08:10.382Z,70.23
2022-08-07T03:11:13.419Z,70.51
2022-08-07T03:14:17.507Z,70.62
2022-08-07T03:17:22.146Z,70.57
2022-08-07T03:20:26.396Z,70.73
2022-08-07T03:23:34.119Z,70.61
2022-08-07T03:26:58.781Z,70.82
2022-08-07T03:30:03.770Z,70.51
2022-08-07T03:33:10.082Z,71.35
2022-08-07T03:36:16.709Z,72.01
2022-08-07T03:39:56.570Z,71.95
2022-08-07T03:42:44.566Z,71.82
2022-08-07T03:45:48.708Z,71.95
2022-08-07T03:49:02.702Z,71.59
2022-08-07T03:52:07.670Z,71.65
2022-08-07T03:55:24.910Z,71.54
2022-08-07T03:59:09.019Z,71.76
2022-08-07T04:02:11.404Z,71.92
2022-08-07T04:05:20.104Z,71.73
2022-08-07T04:08:32.592Z,71.11
2022-08-07T04:12:26.383Z,70.02
2022-08-07T04:15:01.049Z,68.59
2022-08-07T04:18:58.262Z,67.22
2022-08-07T04:21:27.392Z,68.31
2022-08-07T04:24:39.257Z,67.71
2022-08-07T04:27:46.063Z,67.36
2022-08-07T04:30:58.653Z,68.20
2022-08-07T04:34:02.651Z,69.25
2022-08-07T04:37:08.143Z,69.71
2022-08-07T04:40:30.129Z,67.27
2022-08-07T04:44:13.118Z,65.09
2022-08-07T04:47:08.458Z,63.98
2022-08-07T04:50:12.810Z,62.73
2022-08-07T04:53:39.932Z,61.79
2022-08-07T04:58:23.767Z,60.67
2022-08-07T05:00:30.147Z,60.32
2022-08-07T05:03:59.653Z,59.47
2022-08-07T05:07:19.846Z,59.18
2022-08-07T05:10:29.131Z,59.76
2022-08-07T05:14:53.976Z,59.71
2022-08-07T05:17:01.403Z,59.34
2022-08-07T05:20:09.973Z,59.33
2022-08-07T05:23:16.887Z,58.10
2022-08-07T05:26:23.916Z,58.47
2022-08-07T05:29:38.972Z,58.52
2022-08-07T05:32:51.282Z,57.63
2022-08-07T05:35:55.385Z,57.71
2022-08-07T05:39:09.214Z,57.02
2022-08-07T05:42:34.332Z,56.04
2022-08-07T05:45:47.777Z,55.07
2022-08-07T05:48:58.413Z,55.40
2022-08-07T05:52:04.630Z,55.46
2022-08-07T05:55:10.690Z,55.29
2022-08-07T05:58:15.930Z,54.49
2022-08-07T06:01:20.870Z,54.35
2022-08-07T06:04:29.781Z,53.57
2022-08-07T06:08:14.034Z,52.50
2022-08-07T06:10:56.904Z,51.91
2022-08-07T06:14:12.401Z,52.29
2022-08-07T06:17:32.062Z,52.03
2022-08-07T06:20:51.150Z,51.66
2022-08-07T06:24:45.569Z,50.96
2022-08-07T06:27:44.003Z,51.02
2022-08-07T06:30:50.692Z,50.67
2022-08-07T06:33:57.524Z,49.61
2022-08-07T06:37:02.577Z,49.83
2022-08-07T06:40:12.892Z,49.30
2022-08-07T06:43:23.673Z,49.32
2022-08-07T06:46:31.331Z,49.65
2022-08-07T06:49:51.949Z,49.34
2022-08-07T06:53:04.156Z,49.36
2022-08-07T06:56:15.582Z,49.41
2022-08-07T07:00:15.098Z,48.93
2022-08-07T07:03:08.841Z,49.07
2022-08-07T07:06:13.580Z,48.72
2022-08-07T07:09:30.851Z,49.40
2022-08-07T07:12:53.466Z,49.39
2022-08-07T07:16:00.345Z,49.08
2022-08-07T07:19:37.298Z,49.01
2022-08-07T07:22:36.280Z,48.41
2022-08-07T07:26:34.582Z,48.50
2022-08-07T07:29:40.245Z,47.90
2022-08-07T07:32:40.365Z,48.22
2022-08-07T07:36:04.629Z,48.05
2022-08-07T07:39:07.859Z,47.73
2022-08-07T07:42:13.901Z,46.82
2022-08-07T07:46:35.401Z,46.43
2022-08-07T07:48:46.467Z,45.87
2022-08-07T07:51:58.346Z,45.81
2022-08-07T07:55:03.462Z,45.52
2022-08-07T07:58:06.493Z,45.73
2022-08-07T08:02:01.850Z,45.88
2022-08-07T08:04:34.003Z,45.95
2022-08-07T08:07:42.550Z,45.75
2022-08-07T08:11:01.326Z,45.67
2022-08-07T08:14:06.656Z,45.17
2022-08-07T08:17:55.731Z,44.63
2022-08-07T08:20:34.672Z,45.37
2022-08-07T08:24:36.517Z,45.16
2022-08-07T08:27:41.633Z,44.12
2022-08-07T08:30:59.853Z,41.64
2022-08-07T08:34:04.347Z,40.39
2022-08-07T08:37:09.953Z,40.71
2022-08-07T08:40:32.593Z,40.86
2022-08-07T08:43:55.928Z,40.18
2022-08-07T08:47:04.689Z,36.78
2022-08-07T08:50:34.723Z,36.26
2022-08-07T08:53:45.877Z,35.62
2022-08-07T08:56:49.840Z,34.58
2022-08-07T08:59:57.342Z,30.10
2022-08-07T09:03:10.377Z,26.91
2022-08-07T09:06:28.771Z,25.67
2022-08-07T09:09:41.736Z,26.77
2022-08-07T09:13:02.470Z,29.16
2022-08-07T09:16:22.936Z,29.58
2022-08-07T09:19:52.703Z,29.73
2022-08-07T09:24:33.579Z,27.90
2022-08-07T09:26:35.726Z,27.37
2022-08-07T09:30:06.562Z,30.91
2022-08-07T09:33:53.075Z,31.91
2022-08-07T09:37:04.643Z,33.29
2022-08-07T09:40:19.901Z,33.37
2022-08-07T09:44:03.081Z,32.89
2022-08-07T09:47:51.090Z,33.95
2022-08-07T09:50:39.989Z,31.57
2022-08-07T09:53:48.002Z,32.21
2022-08-07T09:57:07.037Z,33.40
2022-08-07T10:00:16.321Z,33.20
2022-08-07T10:04:07.151Z,32.71
2022-08-07T10:07:25.554Z,33.62
2022-08-07T10:11:59.724Z,33.14
2022-08-07T10:14:30.506Z,33.91
2022-08-07T10:18:02.564Z,32.78
2022-08-07T10:22:16.237Z,33.58
2022-08-07T10:24:50.019Z,33.21
2022-08-07T10:28:12.886Z,32.57
2022-08-07T10:31:39.271Z,33.10
2022-08-07T10:34:58.536Z,33.69
2022-08-07T10:38:35.197Z,33.49
2022-08-07T10:41:54.542Z,34.21
2022-08-07T10:45:44.887Z,34.83
2022-08-07T10:48:41.636Z,33.58
2022-08-07T10:52:13.672Z,33.71
2022-08-07T10:55:27.084Z,34.88
2022-08-07T10:59:00.220Z,35.58
2022-08-07T11:02:12.349Z,34.45
2022-08-07T11:05:48.994Z,35.88
2022-08-07T11:09:00.142Z,35.81
2022-08-07T11:12:07.032Z,34.75
2022-08-07T11:15:17.956Z,34.89
2022-08-07T11:18:35.200Z,34.95
2022-08-07T11:21:42.964Z,35.11
2022-08-07T11:25:07.237Z,33.96
2022-08-07T11:28:15.595Z,34.32
2022-08-07T11:31:39.645Z,35.14
2022-08-07T11:34:42.486Z,34.60
2022-08-07T11:38:12.556Z,32.62
2022-08-07T11:41:28.246Z,31.79
2022-08-07T11:44:59.616Z,32.16
2022-08-07T11:48:29.866Z,31.23
2022-08-07T11:51:46.821Z,32.00
2022-08-07T11:54:54.815Z,31.33
2022-08-07T11:58:16.278Z,32.84
2022-08-07T12:01:59.159Z,34.46
2022-08-07T12:04:56.700Z,33.92
2022-08-07T12:08:05.280Z,32.53
2022-08-07T12:11:20.061Z,31.15
2022-08-07T12:14:26.243Z,33.06
2022-08-07T12:17:59.506Z,33.47
2022-08-07T12:21:55.056Z,32.60
2022-08-07T12:26:02.853Z,33.65
2022-08-07T12:29:11.691Z,34.16
2022-08-07T12:32:32.993Z,34.56
2022-08-07T12:35:37.017Z,34.15
2022-08-07T12:38:43.370Z,33.18
2022-08-07T12:41:52.156Z,33.52
2022-08-07T12:44:57.943Z,33.44
2022-08-07T12:48:28.475Z,33.30
2022-08-07T12:51:51.241Z,33.80
2022-08-07T12:55:18.190Z,34.55
2022-08-07T12:58:21.656Z,34.84
2022-08-07T13:01:39.705Z,35.09
2022-08-07T13:05:01.163Z,35.98
2022-08-07T13:08:23.565Z,35.80
2022-08-07T13:12:01.841Z,36.10
2022-08-07T13:15:31.575Z,36.03
2022-08-07T13:18:44.665Z,36.64
2022-08-07T13:22:12.384Z,35.46
2022-08-07T13:25:29.764Z,35.79
2022-08-07T13:28:41.594Z,35.29
2022-08-07T13:31:59.833Z,35.79
2022-08-07T13:35:08.500Z,35.10
2022-08-07T13:38:12.297Z,34.06
2022-08-07T13:41:29.257Z,33.69
2022-08-07T13:44:34.229Z,33.35
2022-08-07T13:48:05.445Z,34.02
2022-08-07T13:51:28.240Z,34.27
2022-08-07T13:54:31.047Z,33.68
2022-08-07T13:57:38.963Z,32.63
2022-08-07T14:01:08.824Z,33.42
2022-08-07T14:04:14.314Z,33.78
2022-08-07T14:07:21.402Z,34.11
2022-08-07T14:10:28.208Z,33.78
2022-08-07T14:13:35.309Z,35.06
2022-08-07T14:16:40.241Z,35.08
2022-08-07T14:20:41.260Z,34.15
2022-08-07T14:23:58.975Z,34.15
2022-08-07T14:26:56.224Z,35.10
2022-08-07T14:30:11.293Z,35.22
2022-08-07T14:33:16.362Z,34.54
2022-08-07T14:36:25.843Z,34.41
2022-08-07T14:40:17.943Z,34.29
2022-08-07T14:43:00.926Z,34.56
2022-08-07T14:46:31.475Z,34.65
2022-08-07T14:49:57.187Z,34.22
2022-08-07T14:53:07.894Z,33.88
2022-08-07T14:56:14.259Z,34.14
2022-08-07T15:00:04.898Z,34.46
2022-08-07T15:02:45.483Z,33.91
2022-08-07T15:06:08.952Z,34.74
2022-08-07T15:09:57.934Z,35.25
2022-08-07T15:12:42.196Z,35.40
2022-08-07T15:15:52.839Z,35.01
2022-08-07T15:18:57.406Z,34.78
2022-08-07T15:22:06.315Z,34.44
2022-08-07T15:25:36.724Z,35.75
2022-08-07T15:28:51.698Z,36.38
2022-08-07T15:32:02.711Z,35.45
2022-08-07T15:35:12.918Z,35.58
2022-08-07T15:38:18.287Z,36.41
2022-08-07T15:45:03.546Z,35.35
2022-08-07T15:48:12.833Z,36.02
2022-08-07T15:51:22.228Z,36.01
2022-08-07T15:54:47.731Z,36.32
2022-08-07T15:57:52.294Z,36.73
2022-08-07T16:01:12.438Z,36.12
2022-08-07T16:04:16.133Z,35.15
2022-08-07T16:08:30.477Z,35.54
2022-08-07T16:10:43.012Z,35.35
2022-08-07T16:14:17.197Z,35.33
2022-08-07T16:18:01.763Z,35.34
2022-08-07T16:21:53.414Z,35.07
2022-08-07T16:24:38.463Z,35.62
2022-08-07T16:30:07.034Z,35.73
2022-08-07T16:31:50.973Z,35.72
2022-08-07T16:35:32.574Z,35.69
2022-08-07T16:39:02.042Z,35.76
2022-08-07T16:42:06.407Z,35.94
2022-08-07T16:46:33.471Z,36.01
2022-08-07T16:50:29.224Z,36.02
2022-08-07T16:52:57.427Z,36.36
2022-08-07T16:56:06.065Z,36.22
2022-08-07T16:59:19.505Z,36.03
2022-08-07T17:02:51.371Z,36.21
2022-08-07T17:06:26.715Z,36.39
2022-08-07T17:10:06.560Z,36.63
2022-08-07T17:13:08.795Z,36.94
2022-08-07T17:16:16.406Z,36.89
2022-08-07T17:20:02.512Z,37.17
2022-08-07T17:23:02.754Z,37.42
2022-08-07T17:26:22.838Z,37.51
2022-08-07T17:30:14.490Z,37.62
2022-08-07T17:32:59.620Z,37.66
2022-08-07T17:36:04.485Z,38.21
2022-08-07T17:39:20.211Z,38.42
2022-08-07T17:42:58.605Z,38.50
2022-08-07T17:46:13.930Z,38.27
2022-08-07T17:49:22.898Z,38.78
2022-08-07T17:52:41.256Z,38.43
2022-08-07T17:56:00.041Z,39.00
2022-08-07T17:59:10.538Z,39.35
2022-08-07T18:02:23.574Z,39.48
2022-08-07T18:06:01.932Z,39.48
2022-08-07T18:09:06.170Z,39.87
2022-08-07T18:12:38.494Z,40.03
2022-08-07T18:15:53.549Z,40.09
2022-08-07T18:21:03.666Z,40.08
2022-08-07T18:22:50.115Z,40.01
2022-08-07T18:26:01.045Z,40.35
2022-08-07T18:30:06.394Z,40.26
2022-08-07T18:32:51.476Z,40.44
2022-08-07T18:35:57.213Z,40.74
2022-08-07T18:40:05.837Z,40.71
2022-08-07T18:42:47.228Z,40.10
2022-08-07T18:46:25.794Z,40.16
2022-08-07T18:50:33.522Z,40.77
2022-08-07T18:53:14.054Z,41.32
2022-08-07T18:56:31.837Z,41.64
2022-08-07T18:59:59.047Z,40.57
2022-08-07T19:03:12.338Z,39.01
2022-08-07T19:06:21.358Z,37.66
2022-08-07T19:09:56.761Z,37.80
2022-08-07T19:13:28.912Z,37.70
2022-08-07T19:16:43.559Z,38.08
2022-08-07T19:20:00.645Z,37.90
2022-08-07T19:23:18.326Z,38.07
2022-08-07T19:26:28.920Z,38.51
2022-08-07T19:31:05.262Z,38.62
2022-08-07T19:32:59.664Z,39.22
2022-08-07T19:36:02.937Z,39.62
2022-08-07T19:39:09.210Z,39.63
2022-08-07T19:42:24.594Z,39.56
2022-08-07T19:46:05.660Z,39.94
2022-08-07T19:48:55.535Z,40.40
2022-08-07T19:52:00.727Z,40.54
2022-08-07T19:55:04.246Z,40.90
2022-08-07T19:58:15.547Z,40.37
2022-08-07T20:01:19.207Z,41.00
2022-08-07T20:04:32.287Z,40.21
2022-08-07T20:07:47.106Z,40.59
2022-08-07T20:11:09.673Z,40.45
2022-08-07T20:14:23.171Z,40.46
2022-08-07T20:17:36.028Z,40.44
2022-08-07T20:20:41.745Z,40.71
2022-08-07T20:23:48.412Z,40.94
2022-08-07T20:26:58.264Z,41.55
2022-08-07T20:30:02.085Z,41.04
2022-08-07T20:33:36.675Z,41.69
2022-08-07T20:36:34.056Z,41.96
2022-08-07T20:40:02.269Z,42.57
2022-08-07T20:43:02.296Z,42.95
2022-08-07T20:46:27.147Z,43.64
2022-08-07T20:50:01.250Z,44.14
2022-08-07T20:52:54.019Z,45.05
2022-08-07T20:55:57.678Z,45.00
2022-08-07T20:59:03.014Z,44.99
2022-08-07T21:02:33.333Z,45.17
2022-08-07T21:05:50.700Z,45.48
2022-08-07T21:09:03.300Z,45.36
2022-08-07T21:12:15.893Z,45.10
2022-08-07T21:15:47.682Z,44.38
2022-08-07T21:18:57.688Z,45.12
2022-08-07T21:22:04.771Z,44.38
2022-08-07T21:25:29.094Z,44.53
2022-08-07T21:28:49.528Z,44.65
2022-08-07T21:32:48.517Z,44.35
2022-08-07T21:36:05.158Z,44.22
2022-08-07T21:39:44.919Z,43.76
2022-08-07T21:42:46.833Z,44.01
2022-08-07T21:46:09.351Z,44.13
2022-08-07T21:50:02.220Z,44.80
2022-08-07T21:53:09.440Z,44.58
2022-08-07T21:56:39.877Z,44.67
2022-08-07T22:00:05.151Z,45.03
2022-08-07T22:03:33.458Z,45.06
2022-08-07T22:06:45.043Z,45.72
2022-08-07T22:09:54.168Z,46.09
2022-08-07T22:12:59.564Z,46.38
2022-08-07T22:16:39.095Z,46.32
2022-08-07T22:19:57.265Z,47.06
2022-08-07T22:23:03.479Z,47.36
2022-08-07T22:26:12.283Z,47.90
2022-08-07T22:29:48.416Z,48.16
2022-08-07T22:33:04.345Z,47.39
2022-08-07T22:36:16.948Z,47.57
2022-08-07T22:39:35.472Z,47.70
2022-08-07T22:42:58.107Z,47.24
2022-08-07T22:47:02.265Z,47.39
2022-08-07T22:49:51.608Z,47.82
2022-08-07T22:53:03.441Z,47.47
2022-08-07T22:56:08.545Z,47.92
2022-08-07T22:59:14.376Z,48.08
2022-08-07T23:02:35.211Z,48.66
2022-08-07T23:06:06.831Z,48.50
2022-08-07T23:10:05.147Z,48.91
2022-08-07T23:13:09.688Z,49.52
2022-08-07T23:16:44.722Z,49.64
2022-08-07T23:20:18.664Z,49.81
2022-08-07T23:24:06.120Z,50.51
2022-08-07T23:26:55.087Z,50.83
2022-08-07T23:30:39.497Z,50.92
2022-08-07T23:34:35.253Z,50.78
2022-08-07T23:37:20.246Z,51.65
2022-08-07T23:40:34.241Z,51.24
2022-08-07T23:43:37.960Z,51.64
2022-08-07T23:46:59.745Z,52.11
2022-08-07T23:50:24.712Z,52.28
2022-08-07T23:53:50.963Z,52.49
2022-08-07T23:57:18.553Z,52.76
